Etusivu
METAR-TAF:

METAR-TAF

Lentoasemat :

Faßberg, Saksa

Leveyspiiri: 52-55N, Pituuspiiri: 010-11E, korkeus merenpinnasta: 75 m

Tämänhetkinen sää

Tämä raportti tehtiin 30 minuuttia sitten, kello 18.20 UTC
Tuuli 5 kn idästä/koillisesta
Lämpötila 6°C
Kosteus 87%
Ilmanpaine 1004 hPa
Näkyvyys: 5000 m

METAR: ETHS 031820Z AUTO 07005KT 5000 // ////// 06/04 Q1004 ///

Aika: 19:50 (18:50 UTC)


TAF: puuttuu

Säähavainnot ja -ennusteet yli 4000 lentoasemalta (METAR- ja TAF-raportit).

Käytössä olevat sääasemat on merkitty karttaan keltaisilla ja punaisilla pisteillä.

Aseta hiiri pisteen päälle nähdäksesi sääaseman nimen.

Klikkaa sitten nähdäksesi säähavainnot ja -ennusteet.

Kartan vaihtaminen: klikkaa mustalla rastilla varustettuja vihreitä pisteitä, niin voit zoomata sisään; viivalla varustettua vihreää pistettä, niin voit zoomata ulos tai vihreitä nuolia, niin pääset viereisille kartoille.


METAR-TAF: